createdAt,value
2022-09-10T00:01:36.893Z,99.90
2022-09-10T00:04:12.132Z,99.90
2022-09-10T00:06:40.962Z,99.90
2022-09-10T00:09:09.459Z,99.90
2022-09-10T00:11:39.710Z,99.90
2022-09-10T00:14:10.543Z,99.90
2022-09-10T00:16:38.550Z,99.90
2022-09-10T00:19:06.733Z,99.90
2022-09-10T00:21:35.774Z,99.90
2022-09-10T00:24:05.290Z,99.90
2022-09-10T00:26:38.350Z,99.90
2022-09-10T00:29:08.416Z,99.90
2022-09-10T00:31:37.364Z,99.90
2022-09-10T00:34:06.097Z,99.90
2022-09-10T00:36:36.812Z,99.90
2022-09-10T00:39:10.756Z,99.90
2022-09-10T00:41:41.295Z,99.90
2022-09-10T00:44:41.709Z,99.90
2022-09-10T00:47:36.598Z,99.90
2022-09-10T00:50:26.616Z,99.90
2022-09-10T00:52:58.248Z,99.90
2022-09-10T00:55:26.120Z,99.90
2022-09-10T00:57:57.703Z,99.90
2022-09-10T01:00:25.525Z,99.90
2022-09-10T01:02:54.165Z,99.90
2022-09-10T01:05:23.515Z,99.90
2022-09-10T01:07:52.036Z,99.90
2022-09-10T01:10:28.082Z,99.90
2022-09-10T01:13:14.457Z,99.90
2022-09-10T01:15:57.214Z,99.90
2022-09-10T01:19:00.005Z,99.90
2022-09-10T01:21:49.717Z,99.90
2022-09-10T01:24:36.312Z,99.90
2022-09-10T01:27:23.244Z,99.90
2022-09-10T01:30:14.785Z,99.90
2022-09-10T01:32:52.050Z,99.90
2022-09-10T01:35:21.552Z,99.90
2022-09-10T01:37:59.219Z,99.90
2022-09-10T01:40:30.328Z,99.90
2022-09-10T01:43:04.409Z,99.90
2022-09-10T01:45:51.561Z,99.90
2022-09-10T01:48:56.201Z,99.90
2022-09-10T01:52:10.623Z,99.90
2022-09-10T01:55:00.513Z,99.90
2022-09-10T01:57:55.658Z,99.90
2022-09-10T02:00:33.396Z,99.90
2022-09-10T02:03:12.669Z,99.90
2022-09-10T02:05:43.763Z,99.90
2022-09-10T02:08:24.097Z,99.90
2022-09-10T02:10:55.882Z,99.90
2022-09-10T02:13:30.191Z,99.90
2022-09-10T02:16:40.416Z,99.90
2022-09-10T02:19:09.178Z,99.90
2022-09-10T02:21:38.090Z,99.90
2022-09-10T02:24:10.112Z,99.90
2022-09-10T02:26:41.597Z,99.90
2022-09-10T02:29:12.292Z,99.90
2022-09-10T02:31:40.835Z,99.90
2022-09-10T02:34:08.642Z,99.90
2022-09-10T02:36:36.858Z,99.90
2022-09-10T02:39:05.213Z,99.90
2022-09-10T02:41:34.329Z,99.90
2022-09-10T02:44:03.982Z,99.90
2022-09-10T02:46:31.991Z,99.90
2022-09-10T02:49:00.117Z,99.90
2022-09-10T02:51:30.992Z,99.90
2022-09-10T02:53:59.757Z,99.90
2022-09-10T02:56:27.379Z,99.90
2022-09-10T02:58:55.068Z,99.90
2022-09-10T03:01:26.453Z,99.90
2022-09-10T03:04:00.113Z,99.90
2022-09-10T03:06:28.232Z,99.90
2022-09-10T03:08:56.109Z,99.90
2022-09-10T03:11:24.684Z,99.90
2022-09-10T03:13:53.937Z,99.90
2022-09-10T03:16:22.185Z,99.90
2022-09-10T03:18:52.054Z,99.90
2022-09-10T03:21:43.322Z,99.90
2022-09-10T03:24:15.181Z,99.90
2022-09-10T03:26:44.543Z,99.90
2022-09-10T03:29:13.284Z,99.90
2022-09-10T03:31:42.769Z,99.90
2022-09-10T03:34:12.658Z,99.90
2022-09-10T03:36:41.683Z,99.90
2022-09-10T03:39:11.303Z,99.90
2022-09-10T03:41:39.112Z,99.90
2022-09-10T03:44:06.982Z,99.90
2022-09-10T03:46:34.699Z,99.90
2022-09-10T03:49:07.651Z,99.90
2022-09-10T03:51:36.128Z,99.90
2022-09-10T03:54:04.550Z,99.90
2022-09-10T03:56:34.239Z,99.90
2022-09-10T03:59:02.021Z,99.90
2022-09-10T04:01:30.139Z,99.90
2022-09-10T04:03:58.601Z,99.90
2022-09-10T04:06:28.495Z,99.90
2022-09-10T04:08:56.498Z,99.90
2022-09-10T04:11:27.657Z,99.90
2022-09-10T04:13:57.531Z,99.90
2022-09-10T04:16:27.502Z,99.90
2022-09-10T04:18:55.544Z,99.90
2022-09-10T04:21:24.955Z,99.90
2022-09-10T04:23:56.611Z,99.90
2022-09-10T04:26:25.785Z,99.90
2022-09-10T04:28:53.964Z,99.90
2022-09-10T04:31:22.609Z,99.90
2022-09-10T04:33:53.742Z,99.90
2022-09-10T04:36:25.629Z,99.90
2022-09-10T04:38:53.394Z,99.90
2022-09-10T04:41:21.434Z,99.90
2022-09-10T04:43:49.146Z,99.90
2022-09-10T04:46:17.747Z,99.90
2022-09-10T04:48:46.387Z,99.90
2022-09-10T04:51:18.409Z,99.90
2022-09-10T04:53:48.677Z,99.90
2022-09-10T04:56:16.968Z,99.90
2022-09-10T04:58:45.445Z,99.90
2022-09-10T05:01:14.308Z,99.90
2022-09-10T05:03:44.585Z,99.90
2022-09-10T05:06:12.999Z,99.90
2022-09-10T05:08:41.316Z,99.90
2022-09-10T05:11:10.219Z,99.90
2022-09-10T05:13:37.873Z,99.90
2022-09-10T05:16:06.763Z,99.90
2022-09-10T05:18:35.158Z,99.90
2022-09-10T05:21:05.350Z,99.90
2022-09-10T05:23:34.596Z,99.90
2022-09-10T05:26:02.840Z,99.90
2022-09-10T05:28:32.744Z,99.90
2022-09-10T05:31:00.439Z,99.90
2022-09-10T05:33:29.493Z,99.90
2022-09-10T05:35:57.385Z,99.90
2022-09-10T05:38:26.595Z,99.90
2022-09-10T05:40:54.795Z,99.90
2022-09-10T05:43:23.543Z,99.90
2022-09-10T05:45:52.388Z,99.90
2022-09-10T05:48:21.584Z,99.90
2022-09-10T05:50:50.952Z,99.90
2022-09-10T05:53:18.789Z,99.90
2022-09-10T05:55:46.631Z,99.90
2022-09-10T05:58:16.753Z,99.90
2022-09-10T06:00:44.732Z,99.90
2022-09-10T06:03:14.263Z,99.90
2022-09-10T06:05:52.809Z,99.90
2022-09-10T06:08:37.876Z,99.90
2022-09-10T06:11:12.226Z,99.90
2022-09-10T06:13:48.547Z,99.90
2022-09-10T06:16:17.662Z,99.90
2022-09-10T06:18:46.168Z,99.90
2022-09-10T06:21:19.785Z,99.90
2022-09-10T06:23:54.776Z,99.90
2022-09-10T06:26:24.134Z,99.90
2022-09-10T06:28:56.954Z,99.90
2022-09-10T06:31:25.718Z,99.90
2022-09-10T06:33:54.348Z,99.90
2022-09-10T06:36:25.716Z,99.90
2022-09-10T06:38:55.781Z,99.90
2022-09-10T06:41:24.659Z,99.90
2022-09-10T06:43:58.485Z,99.90
2022-09-10T06:49:46.250Z,99.90
2022-09-10T06:52:15.461Z,99.90
2022-09-10T06:54:43.311Z,99.90
2022-09-10T06:57:27.630Z,99.90
2022-09-10T06:59:55.376Z,99.90
2022-09-10T07:02:23.997Z,99.90
2022-09-10T07:04:53.180Z,99.90
2022-09-10T07:07:22.140Z,99.90
2022-09-10T07:09:51.472Z,99.90
2022-09-10T07:12:19.647Z,99.90
2022-09-10T07:14:47.638Z,99.90
2022-09-10T07:17:15.665Z,99.90
2022-09-10T07:19:43.400Z,99.90
2022-09-10T07:22:21.753Z,99.90
2022-09-10T07:24:51.581Z,99.90
2022-09-10T07:27:31.246Z,99.90
2022-09-10T07:29:59.160Z,99.90
2022-09-10T07:32:26.873Z,99.90
2022-09-10T07:35:04.963Z,99.90
2022-09-10T07:37:32.869Z,99.90
2022-09-10T07:40:04.739Z,99.90
2022-09-10T07:42:32.739Z,99.90
2022-09-10T07:45:00.797Z,99.90
2022-09-10T07:47:28.555Z,99.90
2022-09-10T07:49:57.093Z,99.90
2022-09-10T07:52:24.789Z,99.90
2022-09-10T07:54:55.418Z,99.90
2022-09-10T07:57:24.983Z,99.90
2022-09-10T07:59:54.803Z,99.90
2022-09-10T08:02:25.905Z,99.90
2022-09-10T08:04:59.617Z,99.90
2022-09-10T08:07:28.139Z,99.90
2022-09-10T08:09:56.300Z,99.90
2022-09-10T08:12:25.593Z,99.90
2022-09-10T08:14:56.982Z,99.90
2022-09-10T08:17:25.629Z,99.90
2022-09-10T08:19:53.954Z,99.90
2022-09-10T08:22:21.825Z,99.90
2022-09-10T08:24:56.174Z,99.90
2022-09-10T08:27:28.846Z,99.90
2022-09-10T08:29:57.817Z,99.90
2022-09-10T08:32:25.603Z,99.90
2022-09-10T08:34:54.178Z,99.90
2022-09-10T08:37:22.009Z,99.90
2022-09-10T08:39:50.674Z,99.90
2022-09-10T08:42:40.184Z,99.90
2022-09-10T08:45:23.422Z,99.90
2022-09-10T08:47:53.638Z,99.90
2022-09-10T08:50:28.133Z,99.90
2022-09-10T08:53:16.650Z,99.90
2022-09-10T08:55:48.911Z,99.90
2022-09-10T08:58:34.019Z,99.90
2022-09-10T09:01:06.876Z,99.90
2022-09-10T09:03:43.004Z,99.90
2022-09-10T09:06:36.031Z,99.90
2022-09-10T09:09:04.405Z,99.90
2022-09-10T09:11:57.260Z,99.90
2022-09-10T09:15:06.946Z,99.90
2022-09-10T09:18:04.754Z,99.90
2022-09-10T09:20:39.036Z,99.90
2022-09-10T09:23:15.447Z,99.90
2022-09-10T09:25:49.365Z,99.90
2022-09-10T09:28:42.106Z,99.90
2022-09-10T09:31:42.610Z,99.90
2022-09-10T09:34:19.676Z,99.90
2022-09-10T09:36:52.124Z,99.90
2022-09-10T09:39:38.097Z,99.90
2022-09-10T09:42:11.496Z,99.90
2022-09-10T09:44:46.995Z,99.90
2022-09-10T09:47:15.225Z,99.90
2022-09-10T09:49:47.644Z,99.90
2022-09-10T09:52:26.300Z,99.90
2022-09-10T09:55:16.069Z,99.90
2022-09-10T09:57:43.991Z,99.90
2022-09-10T10:00:34.528Z,99.90
2022-09-10T10:03:26.711Z,99.90
2022-09-10T10:06:07.960Z,99.90
2022-09-10T10:08:42.790Z,99.90
2022-09-10T10:11:14.366Z,99.90
2022-09-10T10:13:44.986Z,99.90
2022-09-10T10:16:39.887Z,99.90
2022-09-10T10:24:01.007Z,98.00
2022-09-10T10:30:54.559Z,95.90
2022-09-10T10:35:04.145Z,98.20
2022-09-10T10:42:11.542Z,96.40
2022-09-10T10:45:28.615Z,95.60
2022-09-10T10:48:15.415Z,96.20
2022-09-10T10:58:24.009Z,94.40
2022-09-10T11:01:16.079Z,93.50
2022-09-10T11:04:09.819Z,93.20
2022-09-10T11:06:52.164Z,92.70
2022-09-10T11:09:25.334Z,92.00
2022-09-10T11:12:05.771Z,92.10
2022-09-10T11:15:02.513Z,91.60
2022-09-10T11:17:41.424Z,90.70
2022-09-10T11:20:28.502Z,91.90
2022-09-10T11:23:20.526Z,90.30
2022-09-10T11:26:21.511Z,89.40
2022-09-10T11:29:17.257Z,91.30
2022-09-10T11:32:06.510Z,91.60
2022-09-10T11:34:58.126Z,90.80
2022-09-10T11:37:35.543Z,91.50
2022-09-10T11:40:06.851Z,93.10
2022-09-10T11:42:42.892Z,93.50
2022-09-10T11:45:28.375Z,93.90
2022-09-10T11:48:00.354Z,92.80
2022-09-10T11:50:36.352Z,95.10
2022-09-10T11:53:07.659Z,94.80
2022-09-10T11:56:05.154Z,95.80
2022-09-10T11:58:49.132Z,95.20
2022-09-10T12:01:41.663Z,93.30
2022-09-10T12:04:18.770Z,94.00
2022-09-10T12:07:10.594Z,92.30
2022-09-10T12:10:10.985Z,93.60
2022-09-10T12:12:50.219Z,93.20
2022-09-10T12:15:23.902Z,93.70
2022-09-10T12:18:04.428Z,93.70
2022-09-10T12:20:37.757Z,94.00
2022-09-10T12:23:06.356Z,94.00
2022-09-10T12:25:35.004Z,94.30
2022-09-10T12:28:08.201Z,95.60
2022-09-10T12:30:39.519Z,96.70
2022-09-10T12:33:13.250Z,97.80
2022-09-10T12:35:49.749Z,97.20
2022-09-10T12:39:03.540Z,97.20
2022-09-10T12:41:31.193Z,99.90
2022-09-10T12:44:00.678Z,99.90
2022-09-10T12:46:31.143Z,99.90
2022-09-10T12:49:01.786Z,99.90
2022-09-10T12:52:00.636Z,99.90
2022-09-10T12:54:50.467Z,99.90
2022-09-10T12:57:46.388Z,99.90
2022-09-10T13:00:22.218Z,99.90
2022-09-10T13:03:11.305Z,99.90
2022-09-10T13:05:53.431Z,99.90
2022-09-10T13:08:27.434Z,99.90
2022-09-10T13:11:02.929Z,99.90
2022-09-10T13:13:39.345Z,99.90
2022-09-10T13:16:14.562Z,99.90
2022-09-10T13:18:42.292Z,99.90
2022-09-10T13:21:51.274Z,99.90
2022-09-10T13:24:34.673Z,99.90
2022-09-10T13:27:22.739Z,99.90
2022-09-10T13:30:08.570Z,99.90
2022-09-10T13:32:47.159Z,99.90
2022-09-10T13:35:19.689Z,99.90
2022-09-10T13:38:02.441Z,99.90
2022-09-10T13:40:57.351Z,99.90
2022-09-10T13:43:52.828Z,99.90
2022-09-10T13:46:31.188Z,99.90
2022-09-10T13:49:12.277Z,99.90
2022-09-10T13:51:54.345Z,99.90
2022-09-10T13:54:35.931Z,99.90
2022-09-10T13:57:18.927Z,99.90
2022-09-10T13:59:50.459Z,99.90
2022-09-10T14:02:21.651Z,99.90
2022-09-10T14:04:52.026Z,99.90
2022-09-10T14:07:26.282Z,99.90
2022-09-10T14:10:15.620Z,99.90
2022-09-10T14:12:44.350Z,99.90
2022-09-10T14:15:21.482Z,99.90
2022-09-10T14:18:00.217Z,99.90
2022-09-10T14:20:34.023Z,99.90
2022-09-10T14:23:15.312Z,99.90
2022-09-10T14:25:45.159Z,99.90
2022-09-10T14:28:16.396Z,99.90
2022-09-10T14:30:48.982Z,99.90
2022-09-10T14:33:37.798Z,99.90
2022-09-10T14:36:21.544Z,99.90
2022-09-10T14:39:15.722Z,99.90
2022-09-10T14:41:44.438Z,99.90
2022-09-10T14:44:22.423Z,99.90
2022-09-10T14:46:53.321Z,99.90
2022-09-10T14:49:33.155Z,99.90
2022-09-10T14:52:03.518Z,99.90
2022-09-10T14:54:35.576Z,99.90
2022-09-10T14:57:13.824Z,99.90
2022-09-10T14:59:44.045Z,99.90
2022-09-10T15:02:23.274Z,99.90
2022-09-10T15:04:51.094Z,99.90
2022-09-10T15:07:20.989Z,99.90
2022-09-10T15:09:51.865Z,99.90
2022-09-10T15:12:29.241Z,99.90
2022-09-10T15:14:58.179Z,99.90
2022-09-10T15:17:25.933Z,99.90
2022-09-10T15:19:55.349Z,99.90
2022-09-10T15:22:26.731Z,99.90
2022-09-10T15:25:10.450Z,99.90
2022-09-10T15:27:40.885Z,99.90
2022-09-10T15:30:09.139Z,99.90
2022-09-10T15:32:37.065Z,99.90
2022-09-10T15:35:05.819Z,99.90
2022-09-10T15:37:33.583Z,99.90
2022-09-10T15:40:03.872Z,99.90
2022-09-10T15:42:31.703Z,99.90
2022-09-10T15:44:59.368Z,99.90
2022-09-10T15:47:30.507Z,99.90
2022-09-10T15:49:59.765Z,99.90
2022-09-10T15:52:27.503Z,99.90
2022-09-10T15:55:01.064Z,99.90
2022-09-10T15:57:31.045Z,99.90
2022-09-10T16:00:03.028Z,99.90
2022-09-10T16:02:32.039Z,99.90
2022-09-10T16:05:02.417Z,99.90
2022-09-10T16:07:32.647Z,99.90
2022-09-10T16:10:00.428Z,99.90
2022-09-10T16:12:28.244Z,99.90
2022-09-10T16:15:02.906Z,99.90
2022-09-10T16:17:34.231Z,99.90
2022-09-10T16:20:04.754Z,99.90
2022-09-10T16:22:34.648Z,99.90
2022-09-10T16:25:03.032Z,99.90
2022-09-10T16:27:31.337Z,99.90
2022-09-10T16:30:01.004Z,99.90
2022-09-10T16:32:31.441Z,99.90
2022-09-10T16:35:00.782Z,99.90
2022-09-10T16:37:33.454Z,99.90
2022-09-10T16:40:01.456Z,99.90
2022-09-10T16:42:29.285Z,99.90
2022-09-10T16:44:56.960Z,99.90
2022-09-10T16:47:24.763Z,99.90
2022-09-10T16:49:55.688Z,99.90
2022-09-10T16:52:23.301Z,99.90
2022-09-10T16:54:52.722Z,99.90
2022-09-10T16:57:21.333Z,99.90
2022-09-10T16:59:49.158Z,99.90
2022-09-10T17:02:16.970Z,99.90
2022-09-10T17:04:44.610Z,99.90
2022-09-10T17:07:12.266Z,99.90
2022-09-10T17:09:40.066Z,99.90
2022-09-10T17:12:10.535Z,99.90
2022-09-10T17:14:39.518Z,99.90
2022-09-10T17:17:07.177Z,99.90
2022-09-10T17:19:34.992Z,99.90
2022-09-10T17:22:02.796Z,99.90
2022-09-10T17:24:30.511Z,99.90
2022-09-10T17:27:00.420Z,99.90
2022-09-10T17:29:30.604Z,99.90
2022-09-10T17:31:58.625Z,99.90
2022-09-10T17:34:29.853Z,99.90
2022-09-10T17:36:57.746Z,99.90
2022-09-10T17:39:28.509Z,99.90
2022-09-10T17:41:56.468Z,99.90
2022-09-10T17:44:25.138Z,99.90
2022-09-10T17:46:52.907Z,99.90
2022-09-10T17:49:22.537Z,99.90
2022-09-10T17:51:51.223Z,99.90
2022-09-10T17:54:21.494Z,99.90
2022-09-10T17:56:49.395Z,99.90
2022-09-10T17:59:19.805Z,99.90
2022-09-10T18:01:49.898Z,99.90
2022-09-10T18:04:18.934Z,99.90
2022-09-10T18:06:52.432Z,99.90
2022-09-10T18:09:21.683Z,99.90
2022-09-10T18:11:50.739Z,99.90
2022-09-10T18:14:23.125Z,99.90
2022-09-10T18:16:53.638Z,99.90
2022-09-10T18:19:21.783Z,99.90
2022-09-10T18:21:51.143Z,99.90
2022-09-10T18:24:24.246Z,99.90
2022-09-10T18:26:54.490Z,99.90
2022-09-10T18:29:30.174Z,99.90
2022-09-10T18:32:03.914Z,99.90
2022-09-10T18:34:31.649Z,99.90
2022-09-10T18:37:01.344Z,99.90
2022-09-10T18:39:31.460Z,99.90
2022-09-10T18:42:01.238Z,99.90
2022-09-10T18:44:31.490Z,99.90
2022-09-10T18:46:59.760Z,99.90
2022-09-10T18:49:27.737Z,99.90
2022-09-10T18:51:56.709Z,99.90
2022-09-10T18:54:29.838Z,99.90
2022-09-10T18:56:58.383Z,99.90
2022-09-10T18:59:26.424Z,99.90
2022-09-10T19:01:56.006Z,99.90
2022-09-10T19:04:27.534Z,99.90
2022-09-10T19:06:56.564Z,99.90
2022-09-10T19:09:29.649Z,99.90
2022-09-10T19:11:59.361Z,99.90
2022-09-10T19:14:30.898Z,99.90
2022-09-10T19:17:00.526Z,99.90
2022-09-10T19:19:33.954Z,99.90
2022-09-10T19:22:07.251Z,99.90
2022-09-10T19:27:23.675Z,99.90
2022-09-10T19:29:52.040Z,99.90
2022-09-10T19:32:20.218Z,99.90
2022-09-10T19:34:51.615Z,99.90
2022-09-10T19:37:19.853Z,99.90
2022-09-10T19:39:47.813Z,99.90
2022-09-10T19:42:16.452Z,99.90
2022-09-10T19:44:44.498Z,99.90
2022-09-10T19:47:12.298Z,99.90
2022-09-10T19:49:40.019Z,99.90
2022-09-10T19:52:07.651Z,99.90
2022-09-10T19:54:35.392Z,99.90
2022-09-10T19:57:03.211Z,99.90
2022-09-10T19:59:30.917Z,99.90
2022-09-10T20:01:58.649Z,99.90
2022-09-10T20:04:27.922Z,99.90
2022-09-10T20:06:55.640Z,99.90
2022-09-10T20:09:23.339Z,99.90
2022-09-10T20:11:51.269Z,99.90
2022-09-10T20:14:19.673Z,99.90
2022-09-10T20:16:47.297Z,99.90
2022-09-10T20:19:22.111Z,99.90
2022-09-10T20:21:50.170Z,99.90
2022-09-10T20:24:17.788Z,99.90
2022-09-10T20:26:46.683Z,99.90
2022-09-10T20:29:16.590Z,99.90
2022-09-10T20:31:46.301Z,99.90
2022-09-10T20:34:19.788Z,99.90
2022-09-10T20:36:51.235Z,99.90
2022-09-10T20:39:25.263Z,99.90
2022-09-10T20:41:53.477Z,99.90
2022-09-10T20:44:21.439Z,99.90
2022-09-10T20:46:49.150Z,99.90
2022-09-10T20:49:16.954Z,99.90
2022-09-10T20:51:45.419Z,99.90
2022-09-10T20:54:15.841Z,99.90
2022-09-10T20:56:44.238Z,99.90
2022-09-10T20:59:14.751Z,99.90
2022-09-10T21:01:44.466Z,99.90
2022-09-10T21:04:13.245Z,99.90
2022-09-10T21:06:41.082Z,99.90
2022-09-10T21:09:08.835Z,99.90
2022-09-10T21:11:36.965Z,99.90
2022-09-10T21:14:06.824Z,99.90
2022-09-10T21:16:37.370Z,99.90
2022-09-10T21:19:10.362Z,99.90
2022-09-10T21:21:41.718Z,99.90
2022-09-10T21:24:12.677Z,99.90
2022-09-10T21:26:43.555Z,99.90
2022-09-10T21:29:19.943Z,99.90
2022-09-10T21:31:49.761Z,99.90
2022-09-10T21:34:17.703Z,99.90
2022-09-10T21:36:45.467Z,99.90
2022-09-10T21:39:15.640Z,99.90
2022-09-10T21:41:49.024Z,99.90
2022-09-10T21:44:20.024Z,99.90
2022-09-10T21:46:48.903Z,99.90
2022-09-10T21:49:17.140Z,99.90
2022-09-10T21:51:45.372Z,99.90
2022-09-10T21:54:21.186Z,99.90
2022-09-10T21:56:49.715Z,99.90
2022-09-10T21:59:17.386Z,99.90
2022-09-10T22:01:46.968Z,99.90
2022-09-10T22:04:19.976Z,99.90
2022-09-10T22:06:49.535Z,99.90
2022-09-10T22:09:17.644Z,99.90
2022-09-10T22:12:01.361Z,99.90
2022-09-10T22:14:36.245Z,99.90
2022-09-10T22:17:05.486Z,99.90
2022-09-10T22:19:33.163Z,99.90
2022-09-10T22:22:00.841Z,99.90
2022-09-10T22:24:29.562Z,99.90
2022-09-10T22:26:57.979Z,99.90
2022-09-10T22:29:25.649Z,99.90
2022-09-10T22:31:53.361Z,99.90
2022-09-10T22:34:21.138Z,99.90
2022-09-10T22:36:49.743Z,99.90
2022-09-10T22:39:19.769Z,99.90
2022-09-10T22:41:48.991Z,99.90
2022-09-10T22:44:20.290Z,99.90
2022-09-10T22:46:48.321Z,99.90
2022-09-10T22:49:16.610Z,99.90
2022-09-10T22:51:44.696Z,99.90
2022-09-10T22:54:12.368Z,99.90
2022-09-10T22:56:40.145Z,99.90
2022-09-10T22:59:11.292Z,99.90
2022-09-10T23:01:39.090Z,99.90
2022-09-10T23:04:08.367Z,99.90
2022-09-10T23:06:38.072Z,99.90
2022-09-10T23:09:12.867Z,99.90
2022-09-10T23:11:41.145Z,99.90
2022-09-10T23:14:13.106Z,99.90
2022-09-10T23:16:43.122Z,99.90
2022-09-10T23:19:17.337Z,99.90
2022-09-10T23:21:48.104Z,99.90
2022-09-10T23:24:18.206Z,99.90
2022-09-10T23:26:46.209Z,99.90
2022-09-10T23:29:17.405Z,99.90
2022-09-10T23:31:46.144Z,99.90
2022-09-10T23:34:16.230Z,99.90
2022-09-10T23:36:45.695Z,99.90
2022-09-10T23:39:24.402Z,99.90
2022-09-10T23:41:54.781Z,99.90
2022-09-10T23:44:24.347Z,99.90
2022-09-10T23:46:53.600Z,99.90
2022-09-10T23:49:22.088Z,99.90
2022-09-10T23:51:50.687Z,99.90
2022-09-10T23:54:18.672Z,99.90
2022-09-10T23:56:46.332Z,99.90
2022-09-10T23:59:15.389Z,99.90
